sensor_id;sensor_type;location;lat;lon;timestamp;temperature;humidity
612;DHT22;293;53.888;11.464;2023-05-29T00:01:19;14.10;99.90
612;DHT22;293;53.888;11.464;2023-05-29T00:03:46;14.10;99.90
612;DHT22;293;53.888;11.464;2023-05-29T00:06:13;14.10;99.90
612;DHT22;293;53.888;11.464;2023-05-29T00:08:40;14.00;99.90
612;DHT22;293;53.888;11.464;2023-05-29T00:11:08;14.00;99.90
612;DHT22;293;53.888;11.464;2023-05-29T00:13:35;14.00;99.90
612;DHT22;293;53.888;11.464;2023-05-29T00:16:02;14.00;99.90
612;DHT22;293;53.888;11.464;2023-05-29T00:18:30;14.00;99.90
612;DHT22;293;53.888;11.464;2023-05-29T00:20:57;14.00;99.90
612;DHT22;293;53.888;11.464;2023-05-29T00:23:24;14.00;99.90
612;DHT22;293;53.888;11.464;2023-05-29T00:25:50;14.00;99.90
612;DHT22;293;53.888;11.464;2023-05-29T00:28:19;14.00;99.90
612;DHT22;293;53.888;11.464;2023-05-29T00:30:46;14.00;99.90
612;DHT22;293;53.888;11.464;2023-05-29T00:33:13;14.00;99.90
612;DHT22;293;53.888;11.464;2023-05-29T00:35:40;13.90;99.90
612;DHT22;293;53.888;11.464;2023-05-29T00:38:07;13.90;99.90
612;DHT22;293;53.888;11.464;2023-05-29T00:40:34;13.90;99.90
612;DHT22;293;53.888;11.464;2023-05-29T00:43:00;13.90;99.90
612;DHT22;293;53.888;11.464;2023-05-29T00:45:29;13.90;99.90
612;DHT22;293;53.888;11.464;2023-05-29T00:47:58;13.90;99.90
612;DHT22;293;53.888;11.464;2023-05-29T00:50:25;13.90;99.90
612;DHT22;293;53.888;11.464;2023-05-29T00:52:52;13.90;99.90
612;DHT22;293;53.888;11.464;2023-05-29T00:55:19;13.80;99.90
612;DHT22;293;53.888;11.464;2023-05-29T00:57:46;13.90;99.90
612;DHT22;293;53.888;11.464;2023-05-29T01:00:16;13.90;99.90
612;DHT22;293;53.888;11.464;2023-05-29T01:02:45;13.80;99.90
612;DHT22;293;53.888;11.464;2023-05-29T01:05:12;13.80;99.90
612;DHT22;293;53.888;11.464;2023-05-29T01:07:41;13.80;99.90
612;DHT22;293;53.888;11.464;2023-05-29T01:10:09;13.80;99.90
612;DHT22;293;53.888;11.464;2023-05-29T01:12:40;13.80;99.90
612;DHT22;293;53.888;11.464;2023-05-29T01:15:21;13.70;99.90
612;DHT22;293;53.888;11.464;2023-05-29T01:20:48;13.80;99.90
612;DHT22;293;53.888;11.464;2023-05-29T01:23:37;13.70;99.90
612;DHT22;293;53.888;11.464;2023-05-29T01:26:21;13.80;99.90
612;DHT22;293;53.888;11.464;2023-05-29T01:28:53;13.80;99.90
612;DHT22;293;53.888;11.464;2023-05-29T01:31:25;13.70;99.90
612;DHT22;293;53.888;11.464;2023-05-29T01:33:53;13.70;99.90
612;DHT22;293;53.888;11.464;2023-05-29T01:36:20;13.70;99.90
612;DHT22;293;53.888;11.464;2023-05-29T01:38:47;13.70;99.90
612;DHT22;293;53.888;11.464;2023-05-29T01:41:14;13.70;99.90
612;DHT22;293;53.888;11.464;2023-05-29T01:43:43;14.30;99.90
612;DHT22;293;53.888;11.464;2023-05-29T01:46:13;13.70;99.90
612;DHT22;293;53.888;11.464;2023-05-29T01:48:40;13.70;99.90
612;DHT22;293;53.888;11.464;2023-05-29T01:51:08;13.70;99.90
612;DHT22;293;53.888;11.464;2023-05-29T01:53:36;13.70;99.90
612;DHT22;293;53.888;11.464;2023-05-29T01:56:03;13.60;99.90
612;DHT22;293;53.888;11.464;2023-05-29T01:58:31;13.60;99.90
612;DHT22;293;53.888;11.464;2023-05-29T02:01:00;13.60;99.90
612;DHT22;293;53.888;11.464;2023-05-29T02:03:28;13.60;99.90
612;DHT22;293;53.888;11.464;2023-05-29T02:05:56;13.50;99.90
612;DHT22;293;53.888;11.464;2023-05-29T02:08:23;13.40;99.90
612;DHT22;293;53.888;11.464;2023-05-29T02:10:50;13.40;99.90
612;DHT22;293;53.888;11.464;2023-05-29T02:13:17;13.40;99.90
612;DHT22;293;53.888;11.464;2023-05-29T02:15:44;13.40;99.90
612;DHT22;293;53.888;11.464;2023-05-29T02:18:14;13.40;99.90
612;DHT22;293;53.888;11.464;2023-05-29T02:20:44;13.40;99.90
612;DHT22;293;53.888;11.464;2023-05-29T02:23:11;13.40;99.90
612;DHT22;293;53.888;11.464;2023-05-29T02:25:39;13.30;99.90
612;DHT22;293;53.888;11.464;2023-05-29T02:28:06;13.30;99.90
612;DHT22;293;53.888;11.464;2023-05-29T02:30:33;13.20;99.90
612;DHT22;293;53.888;11.464;2023-05-29T02:33:00;13.30;99.90
612;DHT22;293;53.888;11.464;2023-05-29T02:35:27;13.30;99.90
612;DHT22;293;53.888;11.464;2023-05-29T02:37:55;13.20;99.90
612;DHT22;293;53.888;11.464;2023-05-29T02:40:22;13.20;99.90
612;DHT22;293;53.888;11.464;2023-05-29T02:42:50;13.20;99.90
612;DHT22;293;53.888;11.464;2023-05-29T02:45:17;13.20;99.90
612;DHT22;293;53.888;11.464;2023-05-29T02:47:44;13.20;99.90
612;DHT22;293;53.888;11.464;2023-05-29T02:50:11;13.30;99.90
612;DHT22;293;53.888;11.464;2023-05-29T02:52:40;13.20;99.90
612;DHT22;293;53.888;11.464;2023-05-29T02:55:09;13.20;99.90
612;DHT22;293;53.888;11.464;2023-05-29T02:57:35;13.20;99.90
612;DHT22;293;53.888;11.464;2023-05-29T03:00:03;13.20;99.90
612;DHT22;293;53.888;11.464;2023-05-29T03:02:32;13.20;99.90
612;DHT22;293;53.888;11.464;2023-05-29T03:05:00;13.20;99.90
612;DHT22;293;53.888;11.464;2023-05-29T03:07:27;13.10;99.90
612;DHT22;293;53.888;11.464;2023-05-29T03:09:53;13.10;99.90
612;DHT22;293;53.888;11.464;2023-05-29T03:12:23;13.10;99.90
612;DHT22;293;53.888;11.464;2023-05-29T03:14:50;13.10;99.90
612;DHT22;293;53.888;11.464;2023-05-29T03:17:17;13.10;99.90
612;DHT22;293;53.888;11.464;2023-05-29T03:19:44;13.10;99.90
612;DHT22;293;53.888;11.464;2023-05-29T03:22:11;13.10;99.90
612;DHT22;293;53.888;11.464;2023-05-29T03:24:38;13.00;99.90
612;DHT22;293;53.888;11.464;2023-05-29T03:27:05;12.90;99.90
612;DHT22;293;53.888;11.464;2023-05-29T03:29:33;13.10;99.90
612;DHT22;293;53.888;11.464;2023-05-29T03:32:00;13.10;99.90
612;DHT22;293;53.888;11.464;2023-05-29T03:34:27;13.10;99.90
612;DHT22;293;53.888;11.464;2023-05-29T03:39:22;13.30;99.90
612;DHT22;293;53.888;11.464;2023-05-29T03:41:49;13.40;99.90
612;DHT22;293;53.888;11.464;2023-05-29T03:44:16;13.60;99.90
612;DHT22;293;53.888;11.464;2023-05-29T03:46:44;13.90;99.90
612;DHT22;293;53.888;11.464;2023-05-29T03:49:11;14.30;99.90
612;DHT22;293;53.888;11.464;2023-05-29T03:51:38;14.80;99.90
612;DHT22;293;53.888;11.464;2023-05-29T03:54:05;15.30;99.90
612;DHT22;293;53.888;11.464;2023-05-29T03:56:32;15.80;98.70
612;DHT22;293;53.888;11.464;2023-05-29T03:59:00;16.30;97.20
612;DHT22;293;53.888;11.464;2023-05-29T04:01:27;16.70;96.60
612;DHT22;293;53.888;11.464;2023-05-29T04:03:55;17.30;95.70
612;DHT22;293;53.888;11.464;2023-05-29T04:06:22;17.90;94.50
612;DHT22;293;53.888;11.464;2023-05-29T04:08:49;18.30;94.10
612;DHT22;293;53.888;11.464;2023-05-29T04:11:16;18.70;92.30
612;DHT22;293;53.888;11.464;2023-05-29T04:13:46;19.00;91.80
612;DHT22;293;53.888;11.464;2023-05-29T04:16:13;19.10;90.80
612;DHT22;293;53.888;11.464;2023-05-29T04:18:40;19.10;90.20
612;DHT22;293;53.888;11.464;2023-05-29T04:21:08;19.40;90.30
612;DHT22;293;53.888;11.464;2023-05-29T04:23:35;19.80;88.50
612;DHT22;293;53.888;11.464;2023-05-29T04:26:02;20.40;87.20
612;DHT22;293;53.888;11.464;2023-05-29T04:28:31;21.00;86.10
612;DHT22;293;53.888;11.464;2023-05-29T04:30:58;21.60;82.90
612;DHT22;293;53.888;11.464;2023-05-29T04:33:25;22.00;79.40
612;DHT22;293;53.888;11.464;2023-05-29T04:35:53;22.30;78.40
612;DHT22;293;53.888;11.464;2023-05-29T04:38:22;22.70;77.40
612;DHT22;293;53.888;11.464;2023-05-29T04:40:51;23.00;76.60
612;DHT22;293;53.888;11.464;2023-05-29T04:43:17;23.60;75.50
612;DHT22;293;53.888;11.464;2023-05-29T04:45:44;24.30;74.50
612;DHT22;293;53.888;11.464;2023-05-29T04:48:11;25.00;71.70
612;DHT22;293;53.888;11.464;2023-05-29T04:50:38;25.40;68.10
612;DHT22;293;53.888;11.464;2023-05-29T04:53:05;25.80;67.20
612;DHT22;293;53.888;11.464;2023-05-29T04:55:33;26.40;66.50
612;DHT22;293;53.888;11.464;2023-05-29T04:58:00;27.00;66.10
612;DHT22;293;53.888;11.464;2023-05-29T05:00:27;27.30;62.10
612;DHT22;293;53.888;11.464;2023-05-29T05:02:54;27.70;61.20
612;DHT22;293;53.888;11.464;2023-05-29T05:05:21;28.10;59.40
612;DHT22;293;53.888;11.464;2023-05-29T05:07:48;28.20;58.80
612;DHT22;293;53.888;11.464;2023-05-29T05:10:15;28.40;59.30
612;DHT22;293;53.888;11.464;2023-05-29T05:12:43;28.60;57.20
612;DHT22;293;53.888;11.464;2023-05-29T05:15:10;28.80;56.40
612;DHT22;293;53.888;11.464;2023-05-29T05:17:37;28.80;56.10
612;DHT22;293;53.888;11.464;2023-05-29T05:20:05;29.10;56.40
612;DHT22;293;53.888;11.464;2023-05-29T05:22:34;29.20;55.60
612;DHT22;293;53.888;11.464;2023-05-29T05:25:00;29.40;56.00
612;DHT22;293;53.888;11.464;2023-05-29T05:27:29;29.70;55.00
612;DHT22;293;53.888;11.464;2023-05-29T05:29:57;30.40;53.50
612;DHT22;293;53.888;11.464;2023-05-29T05:32:24;30.90;53.20
612;DHT22;293;53.888;11.464;2023-05-29T05:34:52;31.20;52.50
612;DHT22;293;53.888;11.464;2023-05-29T05:37:19;31.60;51.00
612;DHT22;293;53.888;11.464;2023-05-29T05:39:48;31.60;50.60
612;DHT22;293;53.888;11.464;2023-05-29T05:42:15;31.80;50.60
612;DHT22;293;53.888;11.464;2023-05-29T05:44:42;31.10;50.00
612;DHT22;293;53.888;11.464;2023-05-29T05:47:10;30.50;51.90
612;DHT22;293;53.888;11.464;2023-05-29T05:49:37;30.50;52.00
612;DHT22;293;53.888;11.464;2023-05-29T05:52:05;30.40;51.10
612;DHT22;293;53.888;11.464;2023-05-29T05:54:32;28.70;52.10
612;DHT22;293;53.888;11.464;2023-05-29T05:56:59;28.10;54.40
612;DHT22;293;53.888;11.464;2023-05-29T05:59:26;27.60;54.80
612;DHT22;293;53.888;11.464;2023-05-29T06:01:52;27.10;56.40
612;DHT22;293;53.888;11.464;2023-05-29T06:04:21;26.80;56.40
612;DHT22;293;53.888;11.464;2023-05-29T06:06:47;26.30;57.60
612;DHT22;293;53.888;11.464;2023-05-29T06:09:14;25.60;58.30
612;DHT22;293;53.888;11.464;2023-05-29T06:11:41;25.00;60.10
612;DHT22;293;53.888;11.464;2023-05-29T06:14:09;24.60;59.70
612;DHT22;293;53.888;11.464;2023-05-29T06:16:35;23.90;62.00
612;DHT22;293;53.888;11.464;2023-05-29T06:19:03;23.20;62.50
612;DHT22;293;53.888;11.464;2023-05-29T06:21:31;22.30;64.30
612;DHT22;293;53.888;11.464;2023-05-29T06:23:58;22.00;67.60
612;DHT22;293;53.888;11.464;2023-05-29T06:26:25;22.40;67.40
612;DHT22;293;53.888;11.464;2023-05-29T06:28:52;23.20;65.60
612;DHT22;293;53.888;11.464;2023-05-29T06:31:20;22.70;64.50
612;DHT22;293;53.888;11.464;2023-05-29T06:33:46;22.00;65.70
612;DHT22;293;53.888;11.464;2023-05-29T06:36:13;21.80;67.90
612;DHT22;293;53.888;11.464;2023-05-29T06:38:46;22.20;67.20
612;DHT22;293;53.888;11.464;2023-05-29T06:41:12;22.70;68.10
612;DHT22;293;53.888;11.464;2023-05-29T06:43:39;23.50;65.10
612;DHT22;293;53.888;11.464;2023-05-29T06:46:06;23.70;63.20
612;DHT22;293;53.888;11.464;2023-05-29T06:48:33;23.50;64.80
612;DHT22;293;53.888;11.464;2023-05-29T06:51:00;23.80;65.20
612;DHT22;293;53.888;11.464;2023-05-29T06:53:27;23.60;64.20
612;DHT22;293;53.888;11.464;2023-05-29T06:55:55;23.00;64.40
612;DHT22;293;53.888;11.464;2023-05-29T06:58:22;22.30;66.40
612;DHT22;293;53.888;11.464;2023-05-29T07:00:49;21.80;66.60
612;DHT22;293;53.888;11.464;2023-05-29T07:03:16;21.30;67.90
612;DHT22;293;53.888;11.464;2023-05-29T07:05:42;20.90;69.50
612;DHT22;293;53.888;11.464;2023-05-29T07:08:09;20.20;71.30
612;DHT22;293;53.888;11.464;2023-05-29T07:10:36;19.50;72.20
612;DHT22;293;53.888;11.464;2023-05-29T07:13:04;19.10;74.20
612;DHT22;293;53.888;11.464;2023-05-29T07:15:31;18.70;76.50
612;DHT22;293;53.888;11.464;2023-05-29T07:17:58;18.60;78.30
612;DHT22;293;53.888;11.464;2023-05-29T07:20:25;18.30;78.20
612;DHT22;293;53.888;11.464;2023-05-29T07:22:52;18.10;78.90
612;DHT22;293;53.888;11.464;2023-05-29T07:25:19;17.90;80.60
612;DHT22;293;53.888;11.464;2023-05-29T07:27:46;17.60;81.90
612;DHT22;293;53.888;11.464;2023-05-29T07:30:14;17.50;82.70
612;DHT22;293;53.888;11.464;2023-05-29T07:32:41;17.30;82.70
612;DHT22;293;53.888;11.464;2023-05-29T07:35:08;17.30;83.80
612;DHT22;293;53.888;11.464;2023-05-29T07:37:35;17.30;84.40
612;DHT22;293;53.888;11.464;2023-05-29T07:40:02;17.30;84.40
612;DHT22;293;53.888;11.464;2023-05-29T07:42:31;17.20;84.70
612;DHT22;293;53.888;11.464;2023-05-29T07:44:58;17.10;84.90
612;DHT22;293;53.888;11.464;2023-05-29T07:47:26;17.20;85.80
612;DHT22;293;53.888;11.464;2023-05-29T07:49:53;17.20;86.00
612;DHT22;293;53.888;11.464;2023-05-29T07:52:20;17.10;86.20
612;DHT22;293;53.888;11.464;2023-05-29T07:54:47;17.00;86.30
612;DHT22;293;53.888;11.464;2023-05-29T07:57:14;16.90;86.60
612;DHT22;293;53.888;11.464;2023-05-29T07:59:41;16.80;85.50
612;DHT22;293;53.888;11.464;2023-05-29T08:02:08;16.60;86.50
612;DHT22;293;53.888;11.464;2023-05-29T08:04:36;16.30;88.30
612;DHT22;293;53.888;11.464;2023-05-29T08:07:04;15.40;88.50
612;DHT22;293;53.888;11.464;2023-05-29T08:09:31;14.40;89.90
612;DHT22;293;53.888;11.464;2023-05-29T08:11:57;15.80;89.80
612;DHT22;293;53.888;11.464;2023-05-29T08:14:25;15.90;94.00
612;DHT22;293;53.888;11.464;2023-05-29T08:24:15;15.80;90.10
612;DHT22;293;53.888;11.464;2023-05-29T08:26:42;15.90;90.20
612;DHT22;293;53.888;11.464;2023-05-29T08:29:09;16.00;90.20
612;DHT22;293;53.888;11.464;2023-05-29T08:31:36;16.00;89.90
612;DHT22;293;53.888;11.464;2023-05-29T08:34:03;16.00;90.10
612;DHT22;293;53.888;11.464;2023-05-29T08:36:32;15.90;90.50
612;DHT22;293;53.888;11.464;2023-05-29T08:39:00;15.80;90.20
612;DHT22;293;53.888;11.464;2023-05-29T08:41:32;16.30;90.70
612;DHT22;293;53.888;11.464;2023-05-29T08:44:03;15.80;89.90
612;DHT22;293;53.888;11.464;2023-05-29T08:46:32;15.60;88.40
612;DHT22;293;53.888;11.464;2023-05-29T08:49:01;15.50;86.90
612;DHT22;293;53.888;11.464;2023-05-29T08:51:34;15.50;87.10
612;DHT22;293;53.888;11.464;2023-05-29T08:54:04;15.50;88.40
612;DHT22;293;53.888;11.464;2023-05-29T08:56:31;15.60;89.70
612;DHT22;293;53.888;11.464;2023-05-29T08:59:00;15.60;89.60
612;DHT22;293;53.888;11.464;2023-05-29T09:01:27;15.60;90.10
612;DHT22;293;53.888;11.464;2023-05-29T09:03:56;15.70;89.50
612;DHT22;293;53.888;11.464;2023-05-29T09:06:23;15.70;89.20
612;DHT22;293;53.888;11.464;2023-05-29T09:08:51;15.70;89.40
612;DHT22;293;53.888;11.464;2023-05-29T09:11:20;15.70;90.10
612;DHT22;293;53.888;11.464;2023-05-29T09:13:46;15.80;90.00
612;DHT22;293;53.888;11.464;2023-05-29T09:16:16;15.60;90.10
612;DHT22;293;53.888;11.464;2023-05-29T09:18:42;15.60;90.10
612;DHT22;293;53.888;11.464;2023-05-29T09:21:25;15.50;90.10
612;DHT22;293;53.888;11.464;2023-05-29T09:23:53;15.50;90.50
612;DHT22;293;53.888;11.464;2023-05-29T09:26:22;15.40;90.00
612;DHT22;293;53.888;11.464;2023-05-29T09:28:49;15.50;90.20
612;DHT22;293;53.888;11.464;2023-05-29T09:31:16;15.50;90.50
612;DHT22;293;53.888;11.464;2023-05-29T09:33:48;15.60;90.20
612;DHT22;293;53.888;11.464;2023-05-29T09:36:20;15.70;90.00
612;DHT22;293;53.888;11.464;2023-05-29T09:38:47;15.70;90.30
612;DHT22;293;53.888;11.464;2023-05-29T09:41:22;15.70;90.20
612;DHT22;293;53.888;11.464;2023-05-29T09:43:49;15.70;90.20
612;DHT22;293;53.888;11.464;2023-05-29T09:46:16;15.70;90.10
612;DHT22;293;53.888;11.464;2023-05-29T09:48:44;15.60;90.30
612;DHT22;293;53.888;11.464;2023-05-29T09:51:19;15.50;90.50
612;DHT22;293;53.888;11.464;2023-05-29T09:53:47;15.40;90.90
612;DHT22;293;53.888;11.464;2023-05-29T09:56:16;15.40;91.20
612;DHT22;293;53.888;11.464;2023-05-29T09:58:45;15.50;90.90
612;DHT22;293;53.888;11.464;2023-05-29T10:01:13;15.40;90.30
612;DHT22;293;53.888;11.464;2023-05-29T10:03:41;15.40;90.80
612;DHT22;293;53.888;11.464;2023-05-29T10:06:10;15.40;90.30
612;DHT22;293;53.888;11.464;2023-05-29T10:08:45;15.30;90.60
612;DHT22;293;53.888;11.464;2023-05-29T10:11:15;15.30;91.30
612;DHT22;293;53.888;11.464;2023-05-29T10:13:45;15.30;91.60
612;DHT22;293;53.888;11.464;2023-05-29T10:16:15;15.30;91.10
612;DHT22;293;53.888;11.464;2023-05-29T10:18:50;15.30;91.40
612;DHT22;293;53.888;11.464;2023-05-29T10:21:21;15.40;91.20
612;DHT22;293;53.888;11.464;2023-05-29T10:23:50;15.50;91.40
612;DHT22;293;53.888;11.464;2023-05-29T10:26:20;15.50;91.20
612;DHT22;293;53.888;11.464;2023-05-29T10:28:55;15.50;91.60
612;DHT22;293;53.888;11.464;2023-05-29T10:31:28;15.50;91.40
612;DHT22;293;53.888;11.464;2023-05-29T10:34:09;15.60;91.30
612;DHT22;293;53.888;11.464;2023-05-29T10:36:51;15.50;91.70
612;DHT22;293;53.888;11.464;2023-05-29T10:39:21;15.70;91.30
612;DHT22;293;53.888;11.464;2023-05-29T10:41:48;15.70;91.40
612;DHT22;293;53.888;11.464;2023-05-29T10:44:39;15.70;91.90
612;DHT22;293;53.888;11.464;2023-05-29T10:47:41;15.70;92.00
612;DHT22;293;53.888;11.464;2023-05-29T10:50:10;15.80;91.70
612;DHT22;293;53.888;11.464;2023-05-29T10:52:45;15.80;92.00
612;DHT22;293;53.888;11.464;2023-05-29T10:55:16;15.80;91.10
612;DHT22;293;53.888;11.464;2023-05-29T10:57:47;15.80;91.30
612;DHT22;293;53.888;11.464;2023-05-29T11:00:16;15.80;91.30
612;DHT22;293;53.888;11.464;2023-05-29T11:02:46;15.80;91.40
612;DHT22;293;53.888;11.464;2023-05-29T11:05:20;15.90;91.40
612;DHT22;293;53.888;11.464;2023-05-29T11:07:52;15.90;91.30
612;DHT22;293;53.888;11.464;2023-05-29T11:10:43;15.90;91.10
612;DHT22;293;53.888;11.464;2023-05-29T11:13:22;16.00;90.90
612;DHT22;293;53.888;11.464;2023-05-29T11:16:04;16.10;90.80
612;DHT22;293;53.888;11.464;2023-05-29T11:18:40;16.10;90.90
612;DHT22;293;53.888;11.464;2023-05-29T11:21:22;16.10;91.00
612;DHT22;293;53.888;11.464;2023-05-29T11:23:51;16.10;91.10
612;DHT22;293;53.888;11.464;2023-05-29T11:26:19;16.10;90.80
612;DHT22;293;53.888;11.464;2023-05-29T11:28:47;16.10;90.60
612;DHT22;293;53.888;11.464;2023-05-29T11:31:15;16.10;90.20
612;DHT22;293;53.888;11.464;2023-05-29T11:33:47;16.20;90.40
612;DHT22;293;53.888;11.464;2023-05-29T11:36:15;16.20;90.60
612;DHT22;293;53.888;11.464;2023-05-29T11:38:42;16.20;90.40
612;DHT22;293;53.888;11.464;2023-05-29T11:41:09;16.20;90.20
612;DHT22;293;53.888;11.464;2023-05-29T11:43:36;16.20;90.10
612;DHT22;293;53.888;11.464;2023-05-29T11:46:16;16.20;89.10
612;DHT22;293;53.888;11.464;2023-05-29T11:48:46;16.20;88.30
612;DHT22;293;53.888;11.464;2023-05-29T11:51:14;16.20;88.10
612;DHT22;293;53.888;11.464;2023-05-29T11:53:41;16.30;89.60
612;DHT22;293;53.888;11.464;2023-05-29T11:56:09;16.30;88.60
612;DHT22;293;53.888;11.464;2023-05-29T11:58:36;16.30;89.40
612;DHT22;293;53.888;11.464;2023-05-29T12:01:03;16.30;89.50
612;DHT22;293;53.888;11.464;2023-05-29T12:03:30;16.40;90.10
612;DHT22;293;53.888;11.464;2023-05-29T12:05:58;16.50;89.70
612;DHT22;293;53.888;11.464;2023-05-29T12:08:26;16.60;86.10
612;DHT22;293;53.888;11.464;2023-05-29T12:10:53;16.60;86.80
612;DHT22;293;53.888;11.464;2023-05-29T12:13:20;16.60;83.20
612;DHT22;293;53.888;11.464;2023-05-29T12:15:52;16.60;82.60
612;DHT22;293;53.888;11.464;2023-05-29T12:18:19;16.60;83.70
612;DHT22;293;53.888;11.464;2023-05-29T12:20:47;16.70;83.80
612;DHT22;293;53.888;11.464;2023-05-29T12:23:17;16.80;83.20
612;DHT22;293;53.888;11.464;2023-05-29T12:25:46;16.70;82.50
612;DHT22;293;53.888;11.464;2023-05-29T12:28:16;16.70;82.40
612;DHT22;293;53.888;11.464;2023-05-29T12:30:44;16.80;82.60
612;DHT22;293;53.888;11.464;2023-05-29T12:33:25;16.80;82.80
612;DHT22;293;53.888;11.464;2023-05-29T12:35:53;16.90;82.50
612;DHT22;293;53.888;11.464;2023-05-29T12:38:22;16.80;81.80
612;DHT22;293;53.888;11.464;2023-05-29T12:40:50;16.90;82.00
612;DHT22;293;53.888;11.464;2023-05-29T12:43:17;16.90;82.10
612;DHT22;293;53.888;11.464;2023-05-29T12:45:44;16.90;82.10
612;DHT22;293;53.888;11.464;2023-05-29T12:48:11;16.90;81.70
612;DHT22;293;53.888;11.464;2023-05-29T12:50:39;16.90;81.50
612;DHT22;293;53.888;11.464;2023-05-29T12:53:07;16.90;82.20
612;DHT22;293;53.888;11.464;2023-05-29T12:55:38;16.90;81.40
612;DHT22;293;53.888;11.464;2023-05-29T12:58:06;16.90;80.70
612;DHT22;293;53.888;11.464;2023-05-29T13:00:33;16.90;78.90
612;DHT22;293;53.888;11.464;2023-05-29T13:03:01;17.00;79.60
612;DHT22;293;53.888;11.464;2023-05-29T13:05:28;17.00;78.60
612;DHT22;293;53.888;11.464;2023-05-29T13:07:55;17.10;79.80
612;DHT22;293;53.888;11.464;2023-05-29T13:10:22;17.00;77.80
612;DHT22;293;53.888;11.464;2023-05-29T13:12:51;17.10;78.30
612;DHT22;293;53.888;11.464;2023-05-29T13:15:21;17.10;76.60
612;DHT22;293;53.888;11.464;2023-05-29T13:17:48;17.10;76.30
612;DHT22;293;53.888;11.464;2023-05-29T13:20:16;17.10;76.10
612;DHT22;293;53.888;11.464;2023-05-29T13:22:46;17.00;75.20
612;DHT22;293;53.888;11.464;2023-05-29T13:25:15;17.00;74.60
612;DHT22;293;53.888;11.464;2023-05-29T13:27:43;17.00;75.40
612;DHT22;293;53.888;11.464;2023-05-29T13:30:13;17.00;75.40
612;DHT22;293;53.888;11.464;2023-05-29T13:32:40;17.00;76.00
612;DHT22;293;53.888;11.464;2023-05-29T13:35:08;17.10;74.90
612;DHT22;293;53.888;11.464;2023-05-29T13:37:35;17.10;74.60
612;DHT22;293;53.888;11.464;2023-05-29T13:40:03;17.10;75.00
612;DHT22;293;53.888;11.464;2023-05-29T13:42:31;17.10;74.60
612;DHT22;293;53.888;11.464;2023-05-29T13:44:58;17.00;74.80
612;DHT22;293;53.888;11.464;2023-05-29T13:47:26;17.00;75.80
612;DHT22;293;53.888;11.464;2023-05-29T13:49:56;17.10;77.80
612;DHT22;293;53.888;11.464;2023-05-29T13:52:23;17.10;76.30
612;DHT22;293;53.888;11.464;2023-05-29T13:54:51;17.20;77.70
612;DHT22;293;53.888;11.464;2023-05-29T13:57:18;17.20;78.00
612;DHT22;293;53.888;11.464;2023-05-29T13:59:45;17.20;78.10
612;DHT22;293;53.888;11.464;2023-05-29T14:02:12;17.20;79.00
612;DHT22;293;53.888;11.464;2023-05-29T14:04:40;17.20;78.20
612;DHT22;293;53.888;11.464;2023-05-29T14:07:08;17.30;77.00
612;DHT22;293;53.888;11.464;2023-05-29T14:09:35;17.20;79.00
612;DHT22;293;53.888;11.464;2023-05-29T14:12:02;17.20;77.70
612;DHT22;293;53.888;11.464;2023-05-29T14:14:29;17.20;77.20
612;DHT22;293;53.888;11.464;2023-05-29T14:16:55;17.30;76.80
612;DHT22;293;53.888;11.464;2023-05-29T14:19:22;17.30;75.30
612;DHT22;293;53.888;11.464;2023-05-29T14:21:51;17.30;76.10
612;DHT22;293;53.888;11.464;2023-05-29T14:24:18;17.30;76.50
612;DHT22;293;53.888;11.464;2023-05-29T14:26:45;17.30;76.60
612;DHT22;293;53.888;11.464;2023-05-29T14:29:13;17.30;76.60
612;DHT22;293;53.888;11.464;2023-05-29T14:31:40;17.20;75.00
612;DHT22;293;53.888;11.464;2023-05-29T14:34:07;17.20;76.00
612;DHT22;293;53.888;11.464;2023-05-29T14:36:35;17.20;75.40
612;DHT22;293;53.888;11.464;2023-05-29T14:39:03;17.20;77.10
612;DHT22;293;53.888;11.464;2023-05-29T14:41:31;17.20;77.60
612;DHT22;293;53.888;11.464;2023-05-29T14:46:26;17.20;75.30
612;DHT22;293;53.888;11.464;2023-05-29T14:48:57;17.30;77.20
612;DHT22;293;53.888;11.464;2023-05-29T14:51:24;17.30;75.80
612;DHT22;293;53.888;11.464;2023-05-29T14:53:51;17.50;73.50
612;DHT22;293;53.888;11.464;2023-05-29T14:56:19;17.40;73.60
612;DHT22;293;53.888;11.464;2023-05-29T14:58:46;17.40;73.70
612;DHT22;293;53.888;11.464;2023-05-29T15:01:14;17.40;75.30
612;DHT22;293;53.888;11.464;2023-05-29T15:03:41;17.50;73.50
612;DHT22;293;53.888;11.464;2023-05-29T15:06:09;17.50;74.10
612;DHT22;293;53.888;11.464;2023-05-29T15:08:37;17.60;74.00
612;DHT22;293;53.888;11.464;2023-05-29T15:13:34;17.70;73.20
612;DHT22;293;53.888;11.464;2023-05-29T15:16:01;17.70;74.10
612;DHT22;293;53.888;11.464;2023-05-29T15:18:29;17.70;73.40
612;DHT22;293;53.888;11.464;2023-05-29T15:20:56;17.70;73.60
612;DHT22;293;53.888;11.464;2023-05-29T15:23:24;17.70;72.30
612;DHT22;293;53.888;11.464;2023-05-29T15:25:52;17.80;73.90
612;DHT22;293;53.888;11.464;2023-05-29T15:28:19;17.80;74.70
612;DHT22;293;53.888;11.464;2023-05-29T15:30:48;17.80;73.70
612;DHT22;293;53.888;11.464;2023-05-29T15:33:15;17.80;73.40
612;DHT22;293;53.888;11.464;2023-05-29T15:35:42;17.90;74.70
612;DHT22;293;53.888;11.464;2023-05-29T15:38:11;17.90;75.40
612;DHT22;293;53.888;11.464;2023-05-29T15:40:39;16.70;74.30
612;DHT22;293;53.888;11.464;2023-05-29T15:43:06;17.70;76.70
612;DHT22;293;53.888;11.464;2023-05-29T15:45:33;17.70;76.20
612;DHT22;293;53.888;11.464;2023-05-29T15:48:01;17.70;77.70
612;DHT22;293;53.888;11.464;2023-05-29T15:50:28;17.70;77.50
612;DHT22;293;53.888;11.464;2023-05-29T15:52:55;17.70;75.00
612;DHT22;293;53.888;11.464;2023-05-29T15:55:22;17.70;74.60
612;DHT22;293;53.888;11.464;2023-05-29T16:00:17;17.80;72.50
612;DHT22;293;53.888;11.464;2023-05-29T16:02:44;17.70;73.00
612;DHT22;293;53.888;11.464;2023-05-29T16:05:12;17.70;75.40
612;DHT22;293;53.888;11.464;2023-05-29T16:07:39;17.70;76.10
612;DHT22;293;53.888;11.464;2023-05-29T16:10:08;17.70;73.50
612;DHT22;293;53.888;11.464;2023-05-29T16:12:36;17.70;73.10
612;DHT22;293;53.888;11.464;2023-05-29T16:15:03;17.70;73.30
612;DHT22;293;53.888;11.464;2023-05-29T16:17:30;17.80;72.00
612;DHT22;293;53.888;11.464;2023-05-29T16:19:57;17.80;73.00
612;DHT22;293;53.888;11.464;2023-05-29T16:22:25;17.80;72.80
612;DHT22;293;53.888;11.464;2023-05-29T16:24:52;17.80;70.00
612;DHT22;293;53.888;11.464;2023-05-29T16:27:19;17.80;70.40
612;DHT22;293;53.888;11.464;2023-05-29T16:29:46;17.80;69.40
612;DHT22;293;53.888;11.464;2023-05-29T16:32:13;17.80;68.80
612;DHT22;293;53.888;11.464;2023-05-29T16:34:41;17.80;69.00
612;DHT22;293;53.888;11.464;2023-05-29T16:37:08;17.80;69.00
612;DHT22;293;53.888;11.464;2023-05-29T16:39:37;17.80;67.10
612;DHT22;293;53.888;11.464;2023-05-29T16:42:05;17.80;65.80
612;DHT22;293;53.888;11.464;2023-05-29T16:44:33;17.80;65.30